Michigan City, IN

7:23 AM CST on March 03, 2015 (GMT -0600)
Porter County Municipal | Change Station
CLOSE
Current Station
Airport
Location: Valparaiso,
Elevation: 768 ft
Nearby Weather Stations
Active Advisory: Winter Weather Advisory

Elev 768 ft 41.45 °N, 87.01 °W | Updated 14 minutes ago

Overcast
Overcast
26 °F
Feels Like 14 °F
N
15
Wind Variable Wind from SSE
Gusts 20 mph

Today
High -- | Low -- °F
--% Chance of Precip.
Yesterday
High -- | Low -- °F
Precip. -- in
6:19 AM 5:40 PM
Waxing Gibbous, 96% visible
Pressure 29.94 in
Visibility 5.0 miles
Clouds Mostly Cloudy 2600 ft
Mostly Cloudy 3500 ft
Overcast 5000 ft
Windchill 14 °F
Dew Point 23 °F
Humidity 88%
Rainfall 0.02 in
Snow Depth Not available.
UV 0 out of 12
Pollen .40 out of 12
Air Quality Not available.
Flu Activity Not available.
SPECI KVPZ 031309Z AUTO 15013G17KT 5SM BR BKN026 BKN035 OVC050 M03/M05 A2994 RMK AO2 T10331050 TSNO

More Conditions Fewer Conditions

Pressure 29.94 in
Visibility 5.0 miles
Clouds Mostly Cloudy 2600 ft
Mostly Cloudy 3500 ft
Overcast 5000 ft
Windchill 14 °F
Dew Point 23 °F
Humidity 88%
Rainfall 0.02 in
Snow Depth Not available.
UV 0 out of 12
Pollen .40 out of 12
Air Quality Not available.
Flu Activity Not available.
SPECI KVPZ 031309Z AUTO 15013G17KT 5SM BR BKN026 BKN035 OVC050 M03/M05 A2994 RMK AO2 T10331050 TSNO

More Conditions Fewer Conditions

10-Day Weather Forecast

Almanac

Astronomy

Mar. 03, 2015 Rise Set
Actual Time
Civil Twilight
Nautical Twilight
Astronomical Twilight
Moon
Length of Visible Light
Length of Day
Tomorrow will be .
, % of the Moon is Illuminated

Today's Extremes

State Highs State Lows

Community

WunderPhotos

Upload Photos

1,802,100 photos uploaded!

WunderBlogs® & News

Nearby

Air Quality

  Air Quality AQ Index Pollutant
Not available.

Snow Depth

Station Depth Elevation

Earthquake Activity

City Distance Mag. Time & Date
Minimum magnitude displayed is 2.5.

Coastal Water Temperatures

Place Temperature

Nearby Weather Stations

Winter Weather Advisory
Statement as of 3:53 AM CST on March 03, 2015

... Winter Weather Advisory now in effect until 1 PM EST /noon
CST/ this afternoon...

Hazardous weather...

* a mix of snow... sleet and freezing rain can be expected this
   morning. Precipitation will become all freezing rain by mid to late
   morning.

* Light snow and sleet accumulations up to an inch are possible.
   Ice accumulations up to a tenth of an inch are also possible.

* As temperatures warm above freezing early this afternoon... icing
   from freezing rain will end.

Impacts...

* roads... overpasses and intersections will be icy and
   dangerous.

* Sidewalks and driveways will also be icy and dangerous.

* Morning commute will be affected.

Precautionary/preparedness actions...

A Winter Weather Advisory means that periods of snow... sleet... or
freezing rain will cause travel difficulties. Be prepared for
dangerous driving conditions and limited visibility... and use
extra caution while driving.